You are listening to:
KDED CTAF/Misc - DeLand, Florida, United States

KDED 042330Z AUTO 03003KT 10SM SCT065 17/11 A3036 RMK AO2 T01750111

If stream doesn't start automatically press the play button
If stream stops then reload player then press play